createdAt,value
2018-07-04T00:03:20.650Z,17.66
2018-07-04T00:08:34.347Z,17.80
2018-07-04T00:13:47.957Z,17.65
2018-07-04T00:19:01.690Z,17.20
2018-07-04T00:24:15.502Z,17.15
2018-07-04T00:29:29.343Z,17.22
2018-07-04T00:34:43.095Z,17.24
2018-07-04T00:39:56.795Z,17.14
2018-07-04T00:45:10.558Z,17.19
2018-07-04T00:50:24.255Z,17.17
2018-07-04T00:55:37.839Z,16.90
2018-07-04T01:00:51.637Z,16.83
2018-07-04T01:06:05.317Z,16.87
2018-07-04T01:11:19.326Z,17.00
2018-07-04T01:16:33.017Z,16.78
2018-07-04T01:21:46.639Z,16.74
2018-07-04T01:27:00.362Z,16.80
2018-07-04T01:32:14.148Z,16.66
2018-07-04T01:37:27.967Z,16.74
2018-07-04T01:42:41.710Z,16.66
2018-07-04T01:47:55.332Z,16.63
2018-07-04T01:53:09.137Z,16.66
2018-07-04T01:58:22.847Z,16.39
2018-07-04T02:03:36.576Z,16.34
2018-07-04T02:08:50.287Z,16.22
2018-07-04T02:14:03.994Z,16.18
2018-07-04T02:19:18.130Z,16.21
2018-07-04T02:24:31.824Z,16.23
2018-07-04T02:29:45.607Z,16.23
2018-07-04T02:35:00.292Z,16.19
2018-07-04T02:40:13.898Z,16.06
2018-07-04T02:45:27.730Z,16.18
2018-07-04T02:50:41.313Z,16.13
2018-07-04T02:55:55.048Z,15.99
2018-07-04T03:01:08.834Z,15.85
2018-07-04T03:06:22.622Z,15.80
2018-07-04T03:11:36.336Z,15.90
2018-07-04T03:16:50.042Z,15.79
2018-07-04T03:22:03.726Z,15.66
2018-07-04T03:27:17.459Z,15.70
2018-07-04T03:32:31.172Z,15.74
2018-07-04T03:37:44.891Z,15.74
2018-07-04T03:42:58.582Z,15.76
2018-07-04T03:48:12.380Z,15.80
2018-07-04T03:53:26.052Z,15.77
2018-07-04T03:58:39.642Z,15.99
2018-07-04T04:03:53.318Z,15.68
2018-07-04T04:09:06.882Z,15.79
2018-07-04T04:14:20.624Z,15.93
2018-07-04T04:19:34.824Z,15.89
2018-07-04T04:24:48.877Z,16.13
2018-07-04T04:30:02.410Z,16.32
2018-07-04T04:35:16.040Z,16.29
2018-07-04T04:40:29.734Z,16.42
2018-07-04T04:45:43.534Z,16.32
2018-07-04T04:50:57.153Z,16.41
2018-07-04T04:56:10.933Z,16.64
2018-07-04T05:01:24.647Z,17.06
2018-07-04T05:06:38.373Z,17.46
2018-07-04T05:11:52.165Z,17.72
2018-07-04T05:17:05.784Z,17.87
2018-07-04T05:22:19.568Z,17.99
2018-07-04T05:27:33.315Z,18.16
2018-07-04T05:32:46.865Z,18.30
2018-07-04T05:38:00.530Z,18.86
2018-07-04T05:43:14.317Z,19.13
2018-07-04T05:48:27.948Z,19.03
2018-07-04T05:53:41.607Z,18.85
2018-07-04T05:58:55.228Z,18.84
2018-07-04T06:04:08.782Z,18.77
2018-07-04T06:09:22.446Z,18.54
2018-07-04T06:14:36.088Z,18.78
2018-07-04T06:19:49.786Z,19.06
2018-07-04T06:25:03.598Z,19.04
2018-07-04T06:30:17.379Z,18.97
2018-07-04T06:36:34.506Z,19.06
2018-07-04T06:41:35.704Z,19.35
2018-07-04T06:46:36.929Z,19.41
2018-07-04T06:51:38.165Z,19.47
2018-07-04T06:56:39.399Z,19.53
2018-07-04T07:01:40.631Z,19.70
2018-07-04T07:06:54.326Z,19.81
2018-07-04T07:12:07.914Z,19.75
2018-07-04T07:17:21.670Z,20.00
2018-07-04T07:22:35.428Z,19.98
2018-07-04T07:27:49.474Z,19.78
2018-07-04T07:33:03.122Z,19.82
2018-07-04T07:38:16.745Z,19.72
2018-07-04T07:43:30.399Z,19.63
2018-07-04T07:48:44.016Z,19.92
2018-07-04T07:53:57.688Z,19.94
2018-07-04T07:59:11.279Z,19.95
2018-07-04T08:04:24.944Z,20.10
2018-07-04T08:09:38.649Z,19.97
2018-07-04T08:14:52.403Z,19.91
2018-07-04T08:20:05.984Z,19.81
2018-07-04T08:25:19.600Z,19.82
2018-07-04T08:30:33.327Z,19.80
2018-07-04T08:35:47.000Z,20.00
2018-07-04T08:41:00.845Z,20.04
2018-07-04T08:46:14.484Z,19.94
2018-07-04T08:51:28.176Z,20.05
2018-07-04T08:56:41.814Z,20.14
2018-07-04T09:01:55.302Z,19.89
2018-07-04T09:07:09.112Z,19.97
2018-07-04T09:12:22.767Z,20.06
2018-07-04T09:17:36.540Z,20.13
2018-07-04T09:22:50.368Z,20.14
2018-07-04T09:28:04.092Z,20.32
2018-07-04T09:33:17.707Z,20.29
2018-07-04T09:38:31.390Z,20.20
2018-07-04T09:43:45.205Z,20.37
2018-07-04T09:48:58.986Z,20.58
2018-07-04T09:54:12.728Z,20.51
2018-07-04T09:59:26.403Z,20.76
2018-07-04T10:04:39.998Z,20.93
2018-07-04T10:09:53.606Z,20.96
2018-07-04T10:15:07.211Z,20.98
2018-07-04T10:20:20.796Z,21.08
2018-07-04T10:25:34.655Z,21.08
2018-07-04T10:30:48.240Z,21.23
2018-07-04T10:36:01.909Z,21.38
2018-07-04T10:41:15.455Z,21.65
2018-07-04T10:46:29.047Z,21.62
2018-07-04T10:51:42.871Z,22.02
2018-07-04T10:56:56.550Z,22.10
2018-07-04T11:02:10.206Z,22.12
2018-07-04T11:07:24.202Z,22.32
2018-07-04T11:12:37.875Z,22.68
2018-07-04T11:17:51.695Z,22.56
2018-07-04T11:23:05.323Z,23.28
2018-07-04T11:28:19.050Z,23.10
2018-07-04T11:33:32.642Z,23.61
2018-07-04T11:38:46.155Z,24.11
2018-07-04T11:43:59.766Z,24.24
2018-07-04T11:49:01.393Z,23.84
2018-07-04T11:54:02.644Z,23.77
2018-07-04T11:59:03.885Z,24.63
2018-07-04T12:04:17.608Z,24.25
2018-07-04T12:09:18.805Z,24.10
2018-07-04T12:14:20.053Z,25.03
2018-07-04T12:19:21.336Z,25.25
2018-07-04T12:24:22.561Z,25.78
2018-07-04T12:29:23.789Z,25.75
2018-07-04T12:34:25.022Z,25.97
2018-07-04T12:39:26.240Z,26.59
2018-07-04T12:44:27.492Z,26.79
2018-07-04T12:49:28.875Z,27.29
2018-07-04T12:54:35.923Z,27.67
2018-07-04T12:59:49.525Z,26.38
2018-07-04T13:05:03.264Z,25.78
2018-07-04T13:10:17.147Z,25.78
2018-07-04T13:15:30.792Z,26.69
2018-07-04T13:20:44.625Z,27.16
2018-07-04T13:25:58.617Z,27.13
2018-07-04T13:31:12.204Z,26.93
2018-07-04T13:36:25.716Z,27.97
2018-07-04T13:41:39.379Z,27.27
2018-07-04T13:46:54.056Z,26.34
2018-07-04T13:52:08.831Z,27.26
2018-07-04T13:57:22.655Z,27.34
2018-07-04T14:02:36.417Z,28.48
2018-07-04T14:07:50.114Z,28.74
2018-07-04T14:13:03.884Z,29.22
2018-07-04T14:18:17.738Z,27.76
2018-07-04T14:23:31.448Z,28.96
2018-07-04T14:28:45.136Z,28.97
2018-07-04T14:33:58.841Z,28.79
2018-07-04T14:39:12.467Z,28.94
2018-07-04T14:44:26.221Z,29.51
2018-07-04T14:49:39.814Z,29.51
2018-07-04T14:54:53.689Z,29.11
2018-07-04T15:00:07.536Z,28.97
2018-07-04T15:05:21.093Z,29.17
2018-07-04T15:10:34.838Z,29.90
2018-07-04T15:15:48.693Z,29.59
2018-07-04T15:21:02.503Z,30.21
2018-07-04T15:26:16.148Z,29.93
2018-07-04T15:31:29.923Z,29.76
2018-07-04T15:36:43.623Z,30.10
2018-07-04T15:41:57.460Z,28.85
2018-07-04T15:47:11.132Z,28.64
2018-07-04T15:52:24.764Z,28.86
2018-07-04T15:57:38.324Z,28.75
2018-07-04T16:02:51.956Z,28.75
2018-07-04T16:08:05.680Z,29.03
2018-07-04T16:13:19.427Z,29.21
2018-07-04T16:18:33.267Z,29.11
2018-07-04T16:23:47.025Z,29.18
2018-07-04T16:29:00.941Z,29.41
2018-07-04T16:34:14.699Z,29.08
2018-07-04T16:39:28.303Z,29.06
2018-07-04T16:44:42.202Z,28.22
2018-07-04T16:49:55.941Z,28.50
2018-07-04T16:55:09.713Z,28.58
2018-07-04T17:00:23.387Z,28.67
2018-07-04T17:05:37.020Z,28.55
2018-07-04T17:10:50.720Z,28.49
2018-07-04T17:16:04.449Z,28.36
2018-07-04T17:21:17.979Z,27.99
2018-07-04T17:26:31.743Z,27.86
2018-07-04T17:31:45.425Z,27.80
2018-07-04T17:36:58.998Z,27.28
2018-07-04T17:42:12.619Z,27.07
2018-07-04T17:47:26.431Z,26.99
2018-07-04T17:52:40.380Z,26.65
2018-07-04T17:57:54.134Z,26.69
2018-07-04T18:03:07.981Z,26.49
2018-07-04T18:08:21.743Z,26.14
2018-07-04T18:13:36.662Z,26.08
2018-07-04T18:18:50.407Z,25.99
2018-07-04T18:24:05.331Z,25.33
2018-07-04T18:29:19.005Z,25.12
2018-07-04T18:34:32.673Z,24.63
2018-07-04T18:39:46.316Z,24.07
2018-07-04T18:45:00.166Z,23.65
2018-07-04T18:50:13.765Z,23.21
2018-07-04T18:55:27.631Z,22.96
2018-07-04T19:00:41.324Z,22.84
2018-07-04T19:05:54.870Z,22.75
2018-07-04T19:11:08.719Z,22.58
2018-07-04T19:16:22.437Z,22.51
2018-07-04T19:21:36.072Z,22.52
2018-07-04T19:26:49.945Z,22.48
2018-07-04T19:32:03.781Z,22.38
2018-07-04T19:37:17.498Z,22.29
2018-07-04T19:42:31.217Z,21.91
2018-07-04T19:47:44.856Z,22.01
2018-07-04T19:52:58.590Z,22.03
2018-07-04T19:58:12.169Z,21.91
2018-07-04T20:03:25.849Z,21.84
2018-07-04T20:08:39.623Z,21.73
2018-07-04T20:13:53.256Z,21.64
2018-07-04T20:19:06.995Z,21.53
2018-07-04T20:24:20.633Z,21.37
2018-07-04T20:29:34.362Z,21.23
2018-07-04T20:34:48.180Z,21.26
2018-07-04T20:40:01.980Z,21.16
2018-07-04T20:45:15.687Z,20.88
2018-07-04T20:50:29.447Z,20.83
2018-07-04T20:55:43.088Z,20.86
2018-07-04T21:00:56.726Z,20.68
2018-07-04T21:06:10.458Z,20.51
2018-07-04T21:11:24.292Z,20.37
2018-07-04T21:16:38.072Z,20.26
2018-07-04T21:21:51.882Z,20.17
2018-07-04T21:27:05.680Z,20.11
2018-07-04T21:32:19.380Z,19.91
2018-07-04T21:37:33.111Z,19.75
2018-07-04T21:42:46.786Z,19.74
2018-07-04T21:48:00.466Z,19.67
2018-07-04T21:53:14.175Z,19.80
2018-07-04T21:58:27.955Z,19.79
2018-07-04T22:03:41.731Z,19.83
2018-07-04T22:08:55.310Z,19.63
2018-07-04T22:14:08.963Z,19.73
2018-07-04T22:19:22.534Z,19.83
2018-07-04T22:24:36.255Z,20.08
2018-07-04T22:29:49.837Z,20.14
2018-07-04T22:35:03.476Z,20.19
2018-07-04T22:40:17.095Z,20.27
2018-07-04T22:45:30.644Z,20.35
2018-07-04T22:50:44.293Z,20.33
2018-07-04T22:55:58.048Z,20.39
2018-07-04T23:01:11.603Z,20.34
2018-07-04T23:06:25.442Z,20.46
2018-07-04T23:11:39.110Z,20.28
2018-07-04T23:16:52.820Z,20.50
2018-07-04T23:22:06.748Z,20.68
2018-07-04T23:27:20.429Z,20.70
2018-07-04T23:32:34.140Z,20.73
2018-07-04T23:37:47.964Z,20.71
2018-07-04T23:43:01.622Z,20.40
2018-07-04T23:48:15.349Z,20.46
2018-07-04T23:53:29.039Z,20.39
2018-07-04T23:58:42.616Z,20.30
